sensor_id;sensor_type;location;lat;lon;timestamp;pressure;altitude;pressure_sealevel;temperature;humidity
49377;BME280;35253;34.688;33.040;2023-04-28T00:00:02;100329.28;;;17.06;100.00
49377;BME280;35253;34.688;33.040;2023-04-28T00:02:29;100319.03;;;16.81;100.00
49377;BME280;35253;34.688;33.040;2023-04-28T00:04:55;100323.16;;;16.94;100.00
49377;BME280;35253;34.688;33.040;2023-04-28T00:07:22;100324.75;;;16.97;100.00
49377;BME280;35253;34.688;33.040;2023-04-28T00:09:48;100327.56;;;16.86;100.00
49377;BME280;35253;34.688;33.040;2023-04-28T00:12:13;100318.78;;;16.84;100.00
49377;BME280;35253;34.688;33.040;2023-04-28T00:14:39;100325.81;;;16.65;100.00
49377;BME280;35253;34.688;33.040;2023-04-28T00:17:05;100321.72;;;16.81;100.00
49377;BME280;35253;34.688;33.040;2023-04-28T00:19:31;100324.44;;;16.71;100.00
49377;BME280;35253;34.688;33.040;2023-04-28T00:21:57;100325.16;;;16.83;100.00
49377;BME280;35253;34.688;33.040;2023-04-28T00:24:22;100326.13;;;16.82;100.00
49377;BME280;35253;34.688;33.040;2023-04-28T00:26:48;100328.84;;;16.51;100.00
49377;BME280;35253;34.688;33.040;2023-04-28T00:29:14;100331.25;;;16.54;100.00
49377;BME280;35253;34.688;33.040;2023-04-28T00:31:39;100329.78;;;16.61;100.00
49377;BME280;35253;34.688;33.040;2023-04-28T00:34:05;100326.81;;;16.64;100.00
49377;BME280;35253;34.688;33.040;2023-04-28T00:36:31;100326.34;;;16.59;100.00
49377;BME280;35253;34.688;33.040;2023-04-28T00:38:57;100330.97;;;16.48;100.00
49377;BME280;35253;34.688;33.040;2023-04-28T00:41:23;100328.53;;;16.35;100.00
49377;BME280;35253;34.688;33.040;2023-04-28T00:43:49;100337.84;;;16.31;100.00
49377;BME280;35253;34.688;33.040;2023-04-28T00:46:24;100323.91;;;16.56;100.00
49377;BME280;35253;34.688;33.040;2023-04-28T00:48:51;100324.25;;;16.73;100.00
49377;BME280;35253;34.688;33.040;2023-04-28T00:51:18;100320.63;;;16.43;100.00
49377;BME280;35253;34.688;33.040;2023-04-28T00:53:44;100328.13;;;16.40;100.00
49377;BME280;35253;34.688;33.040;2023-04-28T00:56:10;100337.91;;;16.50;100.00
49377;BME280;35253;34.688;33.040;2023-04-28T00:58:37;100326.91;;;16.53;100.00
49377;BME280;35253;34.688;33.040;2023-04-28T01:01:07;100335.00;;;16.33;100.00
49377;BME280;35253;34.688;33.040;2023-04-28T01:03:34;100333.88;;;16.26;100.00
49377;BME280;35253;34.688;33.040;2023-04-28T01:06:03;100337.56;;;15.73;100.00
49377;BME280;35253;34.688;33.040;2023-04-28T01:08:31;100349.16;;;15.74;100.00
49377;BME280;35253;34.688;33.040;2023-04-28T01:10:57;100349.34;;;15.61;100.00
49377;BME280;35253;34.688;33.040;2023-04-28T01:13:23;100354.81;;;15.39;100.00
49377;BME280;35253;34.688;33.040;2023-04-28T01:15:50;100347.13;;;15.66;100.00
49377;BME280;35253;34.688;33.040;2023-04-28T01:18:16;100355.19;;;15.87;100.00
49377;BME280;35253;34.688;33.040;2023-04-28T01:20:42;100345.88;;;15.70;100.00
49377;BME280;35253;34.688;33.040;2023-04-28T01:23:11;100350.72;;;15.76;100.00
49377;BME280;35253;34.688;33.040;2023-04-28T01:25:37;100354.13;;;15.99;100.00
49377;BME280;35253;34.688;33.040;2023-04-28T01:28:03;100353.44;;;16.07;100.00
49377;BME280;35253;34.688;33.040;2023-04-28T01:30:29;100342.78;;;16.26;100.00
49377;BME280;35253;34.688;33.040;2023-04-28T01:32:54;100335.00;;;16.33;100.00
49377;BME280;35253;34.688;33.040;2023-04-28T01:35:20;100348.84;;;16.49;100.00
49377;BME280;35253;34.688;33.040;2023-04-28T01:37:46;100352.63;;;16.46;100.00
49377;BME280;35253;34.688;33.040;2023-04-28T01:40:41;100352.09;;;16.52;100.00
49377;BME280;35253;34.688;33.040;2023-04-28T01:43:07;100351.31;;;16.61;100.00
49377;BME280;35253;34.688;33.040;2023-04-28T01:45:32;100359.56;;;16.70;100.00
49377;BME280;35253;34.688;33.040;2023-04-28T01:47:58;100363.13;;;16.80;100.00
49377;BME280;35253;34.688;33.040;2023-04-28T01:50:24;100357.00;;;16.78;100.00
49377;BME280;35253;34.688;33.040;2023-04-28T01:52:49;100350.66;;;16.48;100.00
49377;BME280;35253;34.688;33.040;2023-04-28T01:55:15;100354.38;;;16.57;100.00
49377;BME280;35253;34.688;33.040;2023-04-28T01:57:41;100353.38;;;16.48;100.00
49377;BME280;35253;34.688;33.040;2023-04-28T02:00:07;100350.59;;;16.29;100.00
49377;BME280;35253;34.688;33.040;2023-04-28T02:02:33;100356.25;;;16.26;100.00
49377;BME280;35253;34.688;33.040;2023-04-28T02:04:59;100348.97;;;16.47;100.00
49377;BME280;35253;34.688;33.040;2023-04-28T02:07:25;100345.28;;;16.48;100.00
49377;BME280;35253;34.688;33.040;2023-04-28T02:09:51;100350.97;;;16.55;100.00
49377;BME280;35253;34.688;33.040;2023-04-28T02:12:16;100332.28;;;16.53;100.00
49377;BME280;35253;34.688;33.040;2023-04-28T02:14:42;100348.44;;;16.53;100.00
49377;BME280;35253;34.688;33.040;2023-04-28T02:17:07;100344.34;;;16.29;100.00
49377;BME280;35253;34.688;33.040;2023-04-28T02:19:33;100348.53;;;16.12;100.00
49377;BME280;35253;34.688;33.040;2023-04-28T02:21:59;100358.38;;;15.81;100.00
49377;BME280;35253;34.688;33.040;2023-04-28T02:24:24;100355.50;;;15.94;100.00
49377;BME280;35253;34.688;33.040;2023-04-28T02:26:50;100362.91;;;16.01;100.00
49377;BME280;35253;34.688;33.040;2023-04-28T02:29:16;100351.75;;;16.06;100.00
49377;BME280;35253;34.688;33.040;2023-04-28T02:31:41;100354.25;;;16.28;100.00
49377;BME280;35253;34.688;33.040;2023-04-28T02:34:07;100345.94;;;16.31;100.00
49377;BME280;35253;34.688;33.040;2023-04-28T02:36:33;100356.28;;;16.36;100.00
49377;BME280;35253;34.688;33.040;2023-04-28T02:38:58;100362.59;;;16.25;100.00
49377;BME280;35253;34.688;33.040;2023-04-28T02:41:24;100355.03;;;16.09;100.00
49377;BME280;35253;34.688;33.040;2023-04-28T02:43:50;100369.56;;;16.07;100.00
49377;BME280;35253;34.688;33.040;2023-04-28T02:46:16;100367.16;;;16.04;100.00
49377;BME280;35253;34.688;33.040;2023-04-28T02:48:42;100359.94;;;16.04;100.00
49377;BME280;35253;34.688;33.040;2023-04-28T02:51:07;100366.00;;;15.97;100.00
49377;BME280;35253;34.688;33.040;2023-04-28T02:53:33;100359.22;;;16.02;100.00
49377;BME280;35253;34.688;33.040;2023-04-28T02:56:00;100356.13;;;16.07;100.00
49377;BME280;35253;34.688;33.040;2023-04-28T02:58:28;100346.09;;;16.09;100.00
49377;BME280;35253;34.688;33.040;2023-04-28T03:00:54;100354.97;;;16.00;100.00
49377;BME280;35253;34.688;33.040;2023-04-28T03:03:20;100355.16;;;16.08;100.00
49377;BME280;35253;34.688;33.040;2023-04-28T03:05:45;100359.28;;;16.12;100.00
49377;BME280;35253;34.688;33.040;2023-04-28T03:08:11;100362.31;;;15.98;100.00
49377;BME280;35253;34.688;33.040;2023-04-28T03:10:37;100361.50;;;16.07;100.00
49377;BME280;35253;34.688;33.040;2023-04-28T03:13:02;100368.28;;;16.01;100.00
49377;BME280;35253;34.688;33.040;2023-04-28T03:15:28;100369.53;;;15.76;100.00
49377;BME280;35253;34.688;33.040;2023-04-28T03:17:54;100360.28;;;15.90;100.00
49377;BME280;35253;34.688;33.040;2023-04-28T03:20:19;100372.44;;;16.15;100.00
49377;BME280;35253;34.688;33.040;2023-04-28T03:22:45;100374.69;;;15.89;100.00
49377;BME280;35253;34.688;33.040;2023-04-28T03:25:11;100368.47;;;16.09;100.00
49377;BME280;35253;34.688;33.040;2023-04-28T03:27:36;100376.59;;;16.19;100.00
49377;BME280;35253;34.688;33.040;2023-04-28T03:30:02;100375.69;;;16.09;100.00
49377;BME280;35253;34.688;33.040;2023-04-28T03:32:28;100374.09;;;16.06;100.00
49377;BME280;35253;34.688;33.040;2023-04-28T03:34:54;100374.16;;;16.16;100.00
49377;BME280;35253;34.688;33.040;2023-04-28T03:37:19;100373.81;;;16.30;100.00
49377;BME280;35253;34.688;33.040;2023-04-28T03:39:45;100381.16;;;16.28;100.00
49377;BME280;35253;34.688;33.040;2023-04-28T03:42:11;100381.47;;;16.04;100.00
49377;BME280;35253;34.688;33.040;2023-04-28T03:44:36;100386.28;;;16.31;100.00
49377;BME280;35253;34.688;33.040;2023-04-28T03:47:02;100381.03;;;16.30;100.00
49377;BME280;35253;34.688;33.040;2023-04-28T03:49:28;100386.19;;;16.42;100.00
49377;BME280;35253;34.688;33.040;2023-04-28T03:51:54;100384.09;;;16.55;100.00
49377;BME280;35253;34.688;33.040;2023-04-28T03:54:19;100378.69;;;16.66;100.00
49377;BME280;35253;34.688;33.040;2023-04-28T03:56:45;100384.47;;;16.62;100.00
49377;BME280;35253;34.688;33.040;2023-04-28T03:59:11;100385.66;;;16.79;100.00
49377;BME280;35253;34.688;33.040;2023-04-28T04:01:37;100391.56;;;16.73;100.00
49377;BME280;35253;34.688;33.040;2023-04-28T04:04:03;100398.78;;;16.62;100.00
49377;BME280;35253;34.688;33.040;2023-04-28T04:06:29;100411.75;;;16.88;100.00
49377;BME280;35253;34.688;33.040;2023-04-28T04:08:55;100402.13;;;16.95;100.00
49377;BME280;35253;34.688;33.040;2023-04-28T04:11:21;100403.22;;;16.83;100.00
49377;BME280;35253;34.688;33.040;2023-04-28T04:13:47;100399.81;;;16.81;100.00
49377;BME280;35253;34.688;33.040;2023-04-28T04:16:12;100409.38;;;17.04;100.00
49377;BME280;35253;34.688;33.040;2023-04-28T04:18:40;100397.38;;;17.27;100.00
49377;BME280;35253;34.688;33.040;2023-04-28T04:21:06;100403.91;;;17.53;100.00
49377;BME280;35253;34.688;33.040;2023-04-28T04:23:32;100398.66;;;17.23;100.00
49377;BME280;35253;34.688;33.040;2023-04-28T04:25:58;100413.28;;;17.49;100.00
49377;BME280;35253;34.688;33.040;2023-04-28T04:28:23;100405.38;;;17.67;100.00
49377;BME280;35253;34.688;33.040;2023-04-28T04:30:49;100416.22;;;17.46;100.00
49377;BME280;35253;34.688;33.040;2023-04-28T04:33:15;100416.66;;;17.51;100.00
49377;BME280;35253;34.688;33.040;2023-04-28T04:35:41;100419.97;;;17.65;100.00
49377;BME280;35253;34.688;33.040;2023-04-28T04:38:06;100410.75;;;17.77;100.00
49377;BME280;35253;34.688;33.040;2023-04-28T04:40:32;100418.69;;;17.88;100.00
49377;BME280;35253;34.688;33.040;2023-04-28T04:42:58;100409.16;;;18.03;100.00
49377;BME280;35253;34.688;33.040;2023-04-28T04:45:24;100418.59;;;18.26;100.00
49377;BME280;35253;34.688;33.040;2023-04-28T04:47:51;100420.09;;;18.58;100.00
49377;BME280;35253;34.688;33.040;2023-04-28T04:50:16;100417.41;;;18.58;100.00
49377;BME280;35253;34.688;33.040;2023-04-28T04:52:42;100415.69;;;18.57;100.00
49377;BME280;35253;34.688;33.040;2023-04-28T04:55:08;100411.69;;;18.61;100.00
49377;BME280;35253;34.688;33.040;2023-04-28T04:57:35;100413.63;;;19.05;100.00
49377;BME280;35253;34.688;33.040;2023-04-28T05:00:02;100415.66;;;19.21;100.00
49377;BME280;35253;34.688;33.040;2023-04-28T05:02:28;100414.38;;;19.43;100.00
49377;BME280;35253;34.688;33.040;2023-04-28T05:04:54;100416.03;;;19.08;100.00
49377;BME280;35253;34.688;33.040;2023-04-28T05:07:20;100408.72;;;19.36;100.00
49377;BME280;35253;34.688;33.040;2023-04-28T05:09:46;100410.22;;;18.76;100.00
49377;BME280;35253;34.688;33.040;2023-04-28T05:12:11;100414.41;;;19.15;100.00
49377;BME280;35253;34.688;33.040;2023-04-28T05:14:37;100424.59;;;19.49;100.00
49377;BME280;35253;34.688;33.040;2023-04-28T05:17:03;100421.28;;;19.10;100.00
49377;BME280;35253;34.688;33.040;2023-04-28T05:19:28;100417.22;;;18.96;100.00
49377;BME280;35253;34.688;33.040;2023-04-28T05:21:54;100411.44;;;18.91;100.00
49377;BME280;35253;34.688;33.040;2023-04-28T05:24:23;100413.53;;;18.97;100.00
49377;BME280;35253;34.688;33.040;2023-04-28T05:26:50;100412.97;;;19.21;100.00
49377;BME280;35253;34.688;33.040;2023-04-28T05:29:16;100410.63;;;19.08;100.00
49377;BME280;35253;34.688;33.040;2023-04-28T05:31:41;100421.97;;;19.12;100.00
49377;BME280;35253;34.688;33.040;2023-04-28T05:34:07;100414.94;;;19.46;100.00
49377;BME280;35253;34.688;33.040;2023-04-28T05:36:33;100413.28;;;19.35;100.00
49377;BME280;35253;34.688;33.040;2023-04-28T05:38:59;100419.78;;;19.43;100.00
49377;BME280;35253;34.688;33.040;2023-04-28T05:41:24;100420.00;;;19.31;100.00
49377;BME280;35253;34.688;33.040;2023-04-28T05:43:50;100426.44;;;19.66;100.00
49377;BME280;35253;34.688;33.040;2023-04-28T05:46:16;100422.91;;;19.65;100.00
49377;BME280;35253;34.688;33.040;2023-04-28T05:48:42;100431.25;;;19.72;100.00
49377;BME280;35253;34.688;33.040;2023-04-28T05:51:08;100425.66;;;19.38;100.00
49377;BME280;35253;34.688;33.040;2023-04-28T05:53:34;100417.38;;;19.40;100.00
49377;BME280;35253;34.688;33.040;2023-04-28T05:55:59;100416.66;;;19.47;100.00
49377;BME280;35253;34.688;33.040;2023-04-28T05:58:25;100419.78;;;19.43;100.00
49377;BME280;35253;34.688;33.040;2023-04-28T06:00:51;100432.16;;;19.45;100.00
49377;BME280;35253;34.688;33.040;2023-04-28T06:03:18;100430.84;;;19.67;100.00
49377;BME280;35253;34.688;33.040;2023-04-28T06:05:44;100433.16;;;19.62;100.00
49377;BME280;35253;34.688;33.040;2023-04-28T06:08:10;100440.75;;;19.94;100.00
49377;BME280;35253;34.688;33.040;2023-04-28T06:10:35;100434.00;;;19.45;100.00
49377;BME280;35253;34.688;33.040;2023-04-28T06:13:01;100432.88;;;19.47;100.00
49377;BME280;35253;34.688;33.040;2023-04-28T06:15:29;100437.19;;;19.58;100.00
49377;BME280;35253;34.688;33.040;2023-04-28T06:17:55;100439.75;;;19.77;100.00
49377;BME280;35253;34.688;33.040;2023-04-28T06:20:21;100441.59;;;19.59;100.00
49377;BME280;35253;34.688;33.040;2023-04-28T06:22:46;100441.13;;;19.81;100.00
49377;BME280;35253;34.688;33.040;2023-04-28T06:25:12;100438.38;;;19.55;100.00
49377;BME280;35253;34.688;33.040;2023-04-28T06:27:38;100444.19;;;19.33;100.00
49377;BME280;35253;34.688;33.040;2023-04-28T06:30:04;100439.50;;;19.88;100.00
49377;BME280;35253;34.688;33.040;2023-04-28T06:32:30;100452.19;;;19.88;100.00
49377;BME280;35253;34.688;33.040;2023-04-28T06:34:56;100459.69;;;19.76;100.00
49377;BME280;35253;34.688;33.040;2023-04-28T06:37:21;100444.03;;;19.34;100.00
49377;BME280;35253;34.688;33.040;2023-04-28T06:39:47;100460.78;;;19.48;100.00
49377;BME280;35253;34.688;33.040;2023-04-28T06:42:13;100463.47;;;19.48;100.00
49377;BME280;35253;34.688;33.040;2023-04-28T06:44:42;100451.34;;;19.69;100.00
49377;BME280;35253;34.688;33.040;2023-04-28T06:47:09;100457.22;;;19.65;100.00
49377;BME280;35253;34.688;33.040;2023-04-28T06:49:35;100460.47;;;19.51;100.00
49377;BME280;35253;34.688;33.040;2023-04-28T06:52:01;100458.81;;;19.58;100.00
49377;BME280;35253;34.688;33.040;2023-04-28T06:54:27;100458.09;;;19.65;100.00
49377;BME280;35253;34.688;33.040;2023-04-28T06:56:52;100455.66;;;19.80;100.00
49377;BME280;35253;34.688;33.040;2023-04-28T06:59:18;100447.47;;;19.72;100.00
49377;BME280;35253;34.688;33.040;2023-04-28T07:01:44;100469.19;;;19.80;100.00
49377;BME280;35253;34.688;33.040;2023-04-28T07:04:10;100459.38;;;19.79;100.00
49377;BME280;35253;34.688;33.040;2023-04-28T07:06:35;100454.06;;;19.69;100.00
49377;BME280;35253;34.688;33.040;2023-04-28T07:09:01;100456.97;;;19.76;100.00
49377;BME280;35253;34.688;33.040;2023-04-28T07:11:27;100454.59;;;19.73;100.00
49377;BME280;35253;34.688;33.040;2023-04-28T07:13:53;100463.38;;;19.75;100.00
49377;BME280;35253;34.688;33.040;2023-04-28T07:16:20;100458.44;;;19.88;100.00
49377;BME280;35253;34.688;33.040;2023-04-28T07:18:46;100461.25;;;19.96;100.00
49377;BME280;35253;34.688;33.040;2023-04-28T07:21:12;100459.53;;;19.95;100.00
49377;BME280;35253;34.688;33.040;2023-04-28T07:23:37;100462.06;;;19.97;100.00
49377;BME280;35253;34.688;33.040;2023-04-28T07:26:04;100461.75;;;20.35;100.00
49377;BME280;35253;34.688;33.040;2023-04-28T07:28:30;100461.94;;;20.42;100.00
49377;BME280;35253;34.688;33.040;2023-04-28T07:30:56;100472.78;;;20.42;100.00
49377;BME280;35253;34.688;33.040;2023-04-28T07:33:21;100471.75;;;19.99;100.00
49377;BME280;35253;34.688;33.040;2023-04-28T07:35:47;100462.13;;;20.22;100.00
49377;BME280;35253;34.688;33.040;2023-04-28T07:38:14;100474.75;;;20.14;100.00
49377;BME280;35253;34.688;33.040;2023-04-28T07:40:42;100471.81;;;19.90;100.00
49377;BME280;35253;34.688;33.040;2023-04-28T07:43:08;100472.41;;;20.01;100.00
49377;BME280;35253;34.688;33.040;2023-04-28T07:45:38;100470.19;;;19.79;100.00
49377;BME280;35253;34.688;33.040;2023-04-28T07:48:04;100476.91;;;19.93;100.00
49377;BME280;35253;34.688;33.040;2023-04-28T07:50:30;100483.03;;;19.95;100.00
49377;BME280;35253;34.688;33.040;2023-04-28T07:52:57;100469.91;;;19.82;100.00
49377;BME280;35253;34.688;33.040;2023-04-28T07:55:23;100473.78;;;20.23;100.00
49377;BME280;35253;34.688;33.040;2023-04-28T07:57:49;100478.94;;;20.52;100.00
49377;BME280;35253;34.688;33.040;2023-04-28T08:00:15;100471.28;;;20.73;100.00
49377;BME280;35253;34.688;33.040;2023-04-28T08:02:41;100462.16;;;20.74;100.00
49377;BME280;35253;34.688;33.040;2023-04-28T08:05:07;100475.97;;;20.63;100.00
49377;BME280;35253;34.688;33.040;2023-04-28T08:07:34;100469.00;;;20.60;100.00
49377;BME280;35253;34.688;33.040;2023-04-28T08:10:02;100472.19;;;20.56;100.00
49377;BME280;35253;34.688;33.040;2023-04-28T08:12:28;100472.41;;;20.88;100.00
49377;BME280;35253;34.688;33.040;2023-04-28T08:14:53;100472.44;;;20.96;100.00
49377;BME280;35253;34.688;33.040;2023-04-28T08:17:19;100459.00;;;20.53;100.00
49377;BME280;35253;34.688;33.040;2023-04-28T08:19:45;100456.03;;;20.72;100.00
49377;BME280;35253;34.688;33.040;2023-04-28T08:22:12;100462.50;;;20.71;100.00
49377;BME280;35253;34.688;33.040;2023-04-28T08:24:38;100461.41;;;20.38;100.00
49377;BME280;35253;34.688;33.040;2023-04-28T08:27:03;100455.31;;;20.62;100.00
49377;BME280;35253;34.688;33.040;2023-04-28T08:29:30;100451.00;;;20.77;100.00
49377;BME280;35253;34.688;33.040;2023-04-28T08:31:56;100443.81;;;21.02;100.00
49377;BME280;35253;34.688;33.040;2023-04-28T08:34:22;100434.13;;;20.91;100.00
49377;BME280;35253;34.688;33.040;2023-04-28T08:36:48;100437.06;;;20.72;100.00
49377;BME280;35253;34.688;33.040;2023-04-28T08:39:14;100446.03;;;20.73;100.00
49377;BME280;35253;34.688;33.040;2023-04-28T08:41:40;100433.34;;;20.73;100.00
49377;BME280;35253;34.688;33.040;2023-04-28T08:44:09;100437.91;;;20.73;100.00
49377;BME280;35253;34.688;33.040;2023-04-28T08:46:39;100439.09;;;20.70;100.00
49377;BME280;35253;34.688;33.040;2023-04-28T08:49:15;100435.47;;;20.87;100.00
49377;BME280;35253;34.688;33.040;2023-04-28T08:51:49;100442.06;;;21.19;100.00
49377;BME280;35253;34.688;33.040;2023-04-28T08:54:16;100424.84;;;21.52;100.00
49377;BME280;35253;34.688;33.040;2023-04-28T08:56:43;100431.25;;;20.93;100.00
49377;BME280;35253;34.688;33.040;2023-04-28T08:59:11;100433.13;;;21.34;100.00
49377;BME280;35253;34.688;33.040;2023-04-28T09:01:37;100433.75;;;21.28;100.00
49377;BME280;35253;34.688;33.040;2023-04-28T09:04:04;100434.97;;;21.34;100.00
49377;BME280;35253;34.688;33.040;2023-04-28T09:06:37;100436.28;;;21.13;100.00
49377;BME280;35253;34.688;33.040;2023-04-28T09:09:22;100426.38;;;21.04;100.00
49377;BME280;35253;34.688;33.040;2023-04-28T09:11:59;100417.38;;;20.96;100.00
49377;BME280;35253;34.688;33.040;2023-04-28T09:14:27;100429.28;;;21.11;100.00
49377;BME280;35253;34.688;33.040;2023-04-28T09:16:53;100428.03;;;21.39;100.00
49377;BME280;35253;34.688;33.040;2023-04-28T09:19:19;100419.78;;;21.65;100.00
49377;BME280;35253;34.688;33.040;2023-04-28T09:21:52;100436.03;;;21.49;100.00
49377;BME280;35253;34.688;33.040;2023-04-28T09:24:32;100418.06;;;21.56;100.00
49377;BME280;35253;34.688;33.040;2023-04-28T09:27:07;100418.31;;;21.12;100.00
49377;BME280;35253;34.688;33.040;2023-04-28T09:29:35;100419.72;;;21.33;100.00
49377;BME280;35253;34.688;33.040;2023-04-28T09:32:19;100420.38;;;21.27;100.00
49377;BME280;35253;34.688;33.040;2023-04-28T09:34:47;100416.41;;;21.05;100.00
49377;BME280;35253;34.688;33.040;2023-04-28T09:37:15;100428.09;;;21.05;100.00
49377;BME280;35253;34.688;33.040;2023-04-28T09:39:43;100403.00;;;21.03;100.00
49377;BME280;35253;34.688;33.040;2023-04-28T09:42:09;100413.81;;;21.45;100.00
49377;BME280;35253;34.688;33.040;2023-04-28T09:44:35;100403.44;;;21.33;100.00
49377;BME280;35253;34.688;33.040;2023-04-28T09:47:18;100408.69;;;21.34;100.00
49377;BME280;35253;34.688;33.040;2023-04-28T09:49:53;100412.25;;;21.19;100.00
49377;BME280;35253;34.688;33.040;2023-04-28T09:52:23;100413.47;;;20.98;100.00
49377;BME280;35253;34.688;33.040;2023-04-28T09:54:52;100414.75;;;21.20;100.00
49377;BME280;35253;34.688;33.040;2023-04-28T09:57:19;100407.66;;;21.19;100.00
49377;BME280;35253;34.688;33.040;2023-04-28T09:59:51;100414.13;;;21.34;100.00
49377;BME280;35253;34.688;33.040;2023-04-28T10:02:19;100411.91;;;21.22;100.00
49377;BME280;35253;34.688;33.040;2023-04-28T10:04:47;100405.16;;;21.42;100.00
49377;BME280;35253;34.688;33.040;2023-04-28T10:07:14;100406.13;;;21.17;100.00
49377;BME280;35253;34.688;33.040;2023-04-28T10:09:42;100399.94;;;21.06;100.00
49377;BME280;35253;34.688;33.040;2023-04-28T10:12:31;100400.19;;;21.13;100.00
49377;BME280;35253;34.688;33.040;2023-04-28T10:14:57;100411.16;;;21.11;100.00
49377;BME280;35253;34.688;33.040;2023-04-28T10:17:24;100408.19;;;21.23;100.00
49377;BME280;35253;34.688;33.040;2023-04-28T10:19:52;100402.78;;;21.39;100.00
49377;BME280;35253;34.688;33.040;2023-04-28T10:25:07;100413.50;;;21.81;100.00
49377;BME280;35253;34.688;33.040;2023-04-28T10:27:44;100404.13;;;21.43;100.00
49377;BME280;35253;34.688;33.040;2023-04-28T10:30:19;100404.63;;;21.30;100.00
49377;BME280;35253;34.688;33.040;2023-04-28T10:32:45;100409.94;;;21.56;100.00
49377;BME280;35253;34.688;33.040;2023-04-28T10:38:35;100400.31;;;22.02;100.00
49377;BME280;35253;34.688;33.040;2023-04-28T10:40:53;100395.50;;;21.47;100.00
49377;BME280;35253;34.688;33.040;2023-04-28T10:45:58;100407.69;;;21.35;100.00
49377;BME280;35253;34.688;33.040;2023-04-28T10:58:44;100394.34;;;21.66;100.00
49377;BME280;35253;34.688;33.040;2023-04-28T11:01:30;100388.88;;;21.34;100.00
49377;BME280;35253;34.688;33.040;2023-04-28T11:04:04;100391.81;;;21.06;100.00
49377;BME280;35253;34.688;33.040;2023-04-28T11:06:41;100393.91;;;21.21;100.00
49377;BME280;35253;34.688;33.040;2023-04-28T11:14:37;100387.25;;;21.07;100.00
49377;BME280;35253;34.688;33.040;2023-04-28T11:17:09;100382.72;;;21.16;100.00
49377;BME280;35253;34.688;33.040;2023-04-28T11:19:45;100382.13;;;21.54;100.00
49377;BME280;35253;34.688;33.040;2023-04-28T11:22:15;100377.38;;;21.40;100.00
49377;BME280;35253;34.688;33.040;2023-04-28T11:24:41;100394.25;;;21.18;100.00
49377;BME280;35253;34.688;33.040;2023-04-28T11:27:28;100384.44;;;21.25;100.00
49377;BME280;35253;34.688;33.040;2023-04-28T11:29:59;100379.56;;;21.61;100.00
49377;BME280;35253;34.688;33.040;2023-04-28T11:32:31;100392.91;;;22.51;100.00
49377;BME280;35253;34.688;33.040;2023-04-28T11:34:57;100400.94;;;21.47;100.00
49377;BME280;35253;34.688;33.040;2023-04-28T11:37:23;100396.94;;;21.09;100.00
49377;BME280;35253;34.688;33.040;2023-04-28T11:39:50;100378.34;;;21.15;100.00
49377;BME280;35253;34.688;33.040;2023-04-28T11:42:16;100396.13;;;21.17;100.00
49377;BME280;35253;34.688;33.040;2023-04-28T11:44:49;100380.56;;;21.27;100.00
49377;BME280;35253;34.688;33.040;2023-04-28T11:47:30;100382.44;;;21.27;100.00
49377;BME280;35253;34.688;33.040;2023-04-28T11:49:56;100375.91;;;21.11;100.00
49377;BME280;35253;34.688;33.040;2023-04-28T11:52:23;100376.81;;;21.28;100.00
49377;BME280;35253;34.688;33.040;2023-04-28T11:54:56;100368.22;;;21.89;100.00
49377;BME280;35253;34.688;33.040;2023-04-28T11:57:24;100373.50;;;22.15;100.00
49377;BME280;35253;34.688;33.040;2023-04-28T11:59:51;100393.69;;;22.05;100.00
49377;BME280;35253;34.688;33.040;2023-04-28T12:02:24;100391.63;;;21.74;100.00
49377;BME280;35253;34.688;33.040;2023-04-28T12:04:52;100392.00;;;21.95;100.00
49377;BME280;35253;34.688;33.040;2023-04-28T12:07:18;100387.53;;;21.86;100.00
49377;BME280;35253;34.688;33.040;2023-04-28T12:09:46;100373.25;;;21.20;100.00
49377;BME280;35253;34.688;33.040;2023-04-28T12:12:15;100379.41;;;21.54;100.00
49377;BME280;35253;34.688;33.040;2023-04-28T12:14:59;100383.13;;;21.45;100.00
49377;BME280;35253;34.688;33.040;2023-04-28T12:17:40;100383.47;;;20.92;100.00
49377;BME280;35253;34.688;33.040;2023-04-28T12:20:11;100387.03;;;20.84;100.00
49377;BME280;35253;34.688;33.040;2023-04-28T12:22:48;100377.22;;;20.99;100.00
49377;BME280;35253;34.688;33.040;2023-04-28T12:25:17;100380.56;;;21.35;100.00
49377;BME280;35253;34.688;33.040;2023-04-28T12:28:02;100381.91;;;21.23;100.00
49377;BME280;35253;34.688;33.040;2023-04-28T12:30:30;100378.91;;;20.92;100.00
49377;BME280;35253;34.688;33.040;2023-04-28T12:32:58;100386.72;;;21.03;100.00
49377;BME280;35253;34.688;33.040;2023-04-28T12:35:24;100374.66;;;20.48;100.00
49377;BME280;35253;34.688;33.040;2023-04-28T12:37:51;100373.63;;;20.23;100.00
49377;BME280;35253;34.688;33.040;2023-04-28T12:40:18;100378.66;;;19.92;100.00
49377;BME280;35253;34.688;33.040;2023-04-28T12:42:44;100366.00;;;19.75;100.00
49377;BME280;35253;34.688;33.040;2023-04-28T12:45:10;100367.78;;;20.10;100.00
49377;BME280;35253;34.688;33.040;2023-04-28T12:47:36;100367.00;;;20.17;100.00
49377;BME280;35253;34.688;33.040;2023-04-28T12:50:03;100364.06;;;20.11;100.00
49377;BME280;35253;34.688;33.040;2023-04-28T12:52:29;100375.81;;;20.19;100.00
49377;BME280;35253;34.688;33.040;2023-04-28T12:54:58;100365.97;;;20.18;100.00